Time;durP1;ratioP1;P1;durP2;ratioP2;P2;SDS_P1;SDS_P2;PMS_P1;PMS_P2;Temp;Humidity;BMP_temperature;BMP_pressure;BME280_temperature;BME280_humidity;BME280_pressure;Samples;Min_cycle;Max_cycle;Signal;HPM_P1;HPM_P2
2022/08/06 00:01:25;;;;;;;3.23;1.70;;;;;;;;;;10385781;28;20714;-72
2022/08/06 00:06:26;;;;;;;3.33;1.73;;;;;;;;;;10390683;28;20230;-72
2022/08/06 00:11:27;;;;;;;3.33;1.70;;;;;;;;;;10392768;28;20242;-70
2022/08/06 00:16:28;;;;;;;6.27;2.17;;;;;;;;;;10387865;28;20231;-70
2022/08/06 00:21:29;;;;;;;4.23;1.67;;;;;;;;;;10397597;28;20223;-71
2022/08/06 00:26:33;;;;;;;3.37;1.63;;;;;;;;;;10387244;28;20229;-71
2022/08/06 00:31:34;;;;;;;5.57;1.90;;;;;;;;;;10393580;28;20228;-72
2022/08/06 00:36:35;;;;;;;2.03;1.50;;;;;;;;;;10398212;28;20220;-70
2022/08/06 00:41:37;;;;;;;4.37;1.73;;;;;;;;;;10389777;28;20241;-70
2022/08/06 00:46:39;;;;;;;2.73;1.60;;;;;;;;;;10398503;28;20228;-71
2022/08/06 00:51:40;;;;;;;2.57;1.40;;;;;;;;;;10396790;28;20317;-70
2022/08/06 00:56:41;;;;;;;2.27;1.40;;;;;;;;;;10396453;28;20222;-70
2022/08/06 01:01:42;;;;;;;3.97;1.60;;;;;;;;;;10396798;28;20617;-73
2022/08/06 01:06:43;;;;;;;2.77;1.70;;;;;;;;;;10397146;28;20314;-70
2022/08/06 01:11:44;;;;;;;2.47;1.53;;;;;;;;;;10396801;28;20254;-69
2022/08/06 01:16:55;;;;;;;3.67;1.67;;;;;;;;;;10396663;28;20219;-71
2022/08/06 01:22:05;;;;;;;2.20;1.43;;;;;;;;;;10404204;28;20310;-70
2022/08/06 01:27:44;;;;;;;3.33;1.50;;;;;;;;;;10392683;28;20251;-73
2022/08/06 01:32:54;;;;;;;3.30;1.20;;;;;;;;;;10339264;28;20220;-73
2022/08/06 01:38:01;;;;;;;5.77;1.60;;;;;;;;;;10400097;28;20245;-72
2022/08/06 01:43:04;;;;;;;3.30;1.30;;;;;;;;;;10393005;28;20597;-73
2022/08/06 01:48:07;;;;;;;2.30;1.30;;;;;;;;;;10398172;28;20281;-73
2022/08/06 01:53:12;;;;;;;2.47;1.27;;;;;;;;;;10391016;28;20277;-73
2022/08/06 01:58:14;;;;;;;2.70;0.97;;;;;;;;;;10399766;28;20249;-72
2022/08/06 02:03:18;;;;;;;2.70;1.10;;;;;;;;;;10395105;28;20221;-70
2022/08/06 02:08:20;;;;;;;1.87;1.47;;;;;;;;;;10399230;28;20227;-72
2022/08/06 02:13:22;;;;;;;3.13;1.40;;;;;;;;;;10397842;28;20595;-72
2022/08/06 02:18:24;;;;;;;4.40;1.10;;;;;;;;;;10390684;28;20221;-72
2022/08/06 02:23:26;;;;;;;2.27;1.20;;;;;;;;;;10389959;28;20231;-72
2022/08/06 02:28:28;;;;;;;3.13;1.23;;;;;;;;;;10386816;28;20222;-72
2022/08/06 02:33:30;;;;;;;2.10;1.13;;;;;;;;;;10391628;28;20229;-71
2022/08/06 02:38:49;;;;;;;3.33;1.30;;;;;;;;;;10388856;28;20323;-71
2022/08/06 02:43:53;;;;;;;5.80;1.50;;;;;;;;;;10392384;28;20610;-71
2022/08/06 02:49:02;;;;;;;2.70;1.33;;;;;;;;;;10395335;28;20607;-70
2022/08/06 02:54:05;;;;;;;4.37;1.67;;;;;;;;;;10388715;28;20231;-70
2022/08/06 02:59:08;;;;;;;3.30;1.60;;;;;;;;;;10395950;28;20214;-70
2022/08/06 03:04:09;;;;;;;3.27;1.53;;;;;;;;;;10388938;28;20227;-71
2022/08/06 03:09:14;;;;;;;2.83;1.53;;;;;;;;;;10388683;28;20231;-73
2022/08/06 03:14:15;;;;;;;1.90;1.27;;;;;;;;;;10386991;28;20256;-72
2022/08/06 03:19:18;;;;;;;3.33;1.07;;;;;;;;;;10402341;28;20219;-74
2022/08/06 03:24:19;;;;;;;4.23;1.20;;;;;;;;;;10389289;28;20234;-73
2022/08/06 03:29:21;;;;;;;1.23;1.13;;;;;;;;;;10393613;28;20226;-70
2022/08/06 03:34:22;;;;;;;1.30;1.00;;;;;;;;;;10388179;28;20231;-71
2022/08/06 03:39:25;;;;;;;2.63;1.10;;;;;;;;;;10401184;28;20208;-69
2022/08/06 03:44:32;;;;;;;1.00;1.00;;;;;;;;;;10395171;28;20228;-69
2022/08/06 03:49:36;;;;;;;1.33;1.10;;;;;;;;;;10387297;28;20274;-71
2022/08/06 03:54:40;;;;;;;1.87;0.90;;;;;;;;;;10386154;28;20600;-72
2022/08/06 03:59:43;;;;;;;3.17;1.30;;;;;;;;;;10395196;28;20682;-70
2022/08/06 04:04:45;;;;;;;2.80;1.00;;;;;;;;;;10388689;28;20225;-69
2022/08/06 04:09:46;;;;;;;1.10;0.87;;;;;;;;;;10391074;28;20234;-71
2022/08/06 04:14:54;;;;;;;1.47;1.00;;;;;;;;;;10396570;28;20254;-70
2022/08/06 04:19:55;;;;;;;1.23;1.10;;;;;;;;;;10391676;28;20232;-72
2022/08/06 04:24:56;;;;;;;3.07;1.00;;;;;;;;;;10393160;28;20227;-71
2022/08/06 04:29:58;;;;;;;1.80;1.00;;;;;;;;;;10399328;28;20672;-72
2022/08/06 04:35:03;;;;;;;2.10;1.10;;;;;;;;;;10388105;28;20228;-72
2022/08/06 04:40:06;;;;;;;2.87;1.53;;;;;;;;;;10385473;28;20239;-72
2022/08/06 04:45:11;;;;;;;2.23;1.10;;;;;;;;;;10392865;28;20626;-71
2022/08/06 04:50:12;;;;;;;2.83;1.63;;;;;;;;;;10385817;28;20200;-72
2022/08/06 04:55:13;;;;;;;4.03;1.00;;;;;;;;;;10394231;28;20239;-72
2022/08/06 05:00:14;;;;;;;1.73;1.00;;;;;;;;;;10385137;28;20199;-71
2022/08/06 05:05:16;;;;;;;2.77;1.00;;;;;;;;;;10385642;28;20247;-71
2022/08/06 05:10:18;;;;;;;1.90;1.10;;;;;;;;;;10385439;28;20189;-72
2022/08/06 05:15:45;;;;;;;3.83;1.27;;;;;;;;;;10391250;28;20195;-73
2022/08/06 05:20:50;;;;;;;3.47;0.90;;;;;;;;;;10393164;28;20224;-70
2022/08/06 05:25:51;;;;;;;5.07;0.93;;;;;;;;;;10386419;28;20743;-72
2022/08/06 05:30:53;;;;;;;4.83;0.97;;;;;;;;;;10396102;28;20306;-72
2022/08/06 05:35:54;;;;;;;3.30;0.80;;;;;;;;;;10402172;28;20223;-72
2022/08/06 05:40:55;;;;;;;4.40;1.10;;;;;;;;;;10404431;28;20221;-71
2022/08/06 05:45:58;;;;;;;3.03;1.10;;;;;;;;;;10398227;28;20695;-71
2022/08/06 05:51:11;;;;;;;4.57;1.10;;;;;;;;;;10401950;28;20366;-71
2022/08/06 05:56:21;;;;;;;1.67;0.97;;;;;;;;;;10399531;28;20284;-71
2022/08/06 06:01:23;;;;;;;1.50;0.77;;;;;;;;;;10383375;28;20226;-72
2022/08/06 06:06:24;;;;;;;3.03;1.10;;;;;;;;;;10404574;28;20301;-72
2022/08/06 06:11:26;;;;;;;2.47;0.93;;;;;;;;;;10391060;28;20226;-74
2022/08/06 06:16:29;;;;;;;7.63;1.00;;;;;;;;;;10390919;28;20232;-73
2022/08/06 06:21:30;;;;;;;3.13;0.90;;;;;;;;;;10395614;28;20228;-72
2022/08/06 06:26:50;;;;;;;2.17;1.30;;;;;;;;;;10392358;28;20229;-72
2022/08/06 06:31:57;;;;;;;3.83;0.87;;;;;;;;;;10397406;28;20940;-74
2022/08/06 06:37:08;;;;;;;4.90;1.20;;;;;;;;;;10410177;28;20255;-73
2022/08/06 06:42:22;;;;;;;3.30;1.40;;;;;;;;;;10380957;28;20720;-74
2022/08/06 06:47:29;;;;;;;2.17;0.80;;;;;;;;;;10402737;28;20816;-72
2022/08/06 06:52:32;;;;;;;2.87;1.20;;;;;;;;;;10394514;28;20219;-72
2022/08/06 06:57:37;;;;;;;3.37;1.20;;;;;;;;;;10401509;28;20226;-74
2022/08/06 07:02:42;;;;;;;3.33;0.73;;;;;;;;;;10393835;28;20640;-72
2022/08/06 07:07:45;;;;;;;4.90;1.50;;;;;;;;;;10386845;28;20303;-73
2022/08/06 07:12:47;;;;;;;5.03;1.13;;;;;;;;;;10396749;28;20307;-75
2022/08/06 07:17:50;;;;;;;4.43;0.90;;;;;;;;;;10399480;28;20225;-71
2022/08/06 07:22:53;;;;;;;2.77;1.03;;;;;;;;;;10401255;28;20287;-74
2022/08/06 07:27:54;;;;;;;1.57;0.87;;;;;;;;;;10400197;28;20242;-72
2022/08/06 07:32:55;;;;;;;4.13;1.07;;;;;;;;;;10398143;28;20682;-73
2022/08/06 07:37:58;;;;;;;2.27;0.97;;;;;;;;;;10403927;28;20220;-73
2022/08/06 07:43:01;;;;;;;3.77;0.83;;;;;;;;;;10384662;28;20335;-72
2022/08/06 07:48:12;;;;;;;1.47;0.70;;;;;;;;;;10384663;28;20722;-73
2022/08/06 07:53:14;;;;;;;2.67;0.70;;;;;;;;;;10392901;28;20582;-72
2022/08/06 07:58:16;;;;;;;1.73;0.70;;;;;;;;;;10386937;28;20244;-72
2022/08/06 08:08:38;;;;;;;6.63;0.97;;;;;;;;;;10400503;28;20220;-72
2022/08/06 08:13:39;;;;;;;1.23;0.57;;;;;;;;;;10376657;28;20266;-73
2022/08/06 08:18:40;;;;;;;5.67;1.27;;;;;;;;;;10394351;28;20252;-72
2022/08/06 08:23:43;;;;;;;3.43;0.73;;;;;;;;;;10399491;28;20225;-72
2022/08/06 08:28:44;;;;;;;2.67;0.60;;;;;;;;;;10388824;28;20213;-71
2022/08/06 08:33:45;;;;;;;8.13;1.03;;;;;;;;;;10401653;28;20224;-71
2022/08/06 08:38:46;;;;;;;3.77;1.27;;;;;;;;;;10408375;28;20577;-73
2022/08/06 08:43:53;;;;;;;1.53;0.70;;;;;;;;;;10387337;28;20229;-75
2022/08/06 08:48:55;;;;;;;5.83;1.20;;;;;;;;;;10386110;28;20895;-75
2022/08/06 08:54:00;;;;;;;2.00;0.77;;;;;;;;;;10379160;28;20228;-76
2022/08/06 08:59:06;;;;;;;2.33;1.03;;;;;;;;;;10406770;28;20328;-75
2022/08/06 09:04:07;;;;;;;4.00;1.00;;;;;;;;;;10381287;28;20216;-75
2022/08/06 09:09:08;;;;;;;5.53;1.20;;;;;;;;;;10406611;28;20221;-76
2022/08/06 09:14:10;;;;;;;1.87;1.00;;;;;;;;;;10402338;28;20248;-77
2022/08/06 09:19:11;;;;;;;4.70;1.07;;;;;;;;;;10403234;28;20221;-76
2022/08/06 09:24:12;;;;;;;3.37;0.80;;;;;;;;;;10398436;28;20221;-75
2022/08/06 09:29:22;;;;;;;2.27;0.90;;;;;;;;;;10397379;28;20230;-77
2022/08/06 09:34:31;;;;;;;1.70;0.70;;;;;;;;;;10395328;28;20228;-73
2022/08/06 09:39:39;;;;;;;3.03;1.00;;;;;;;;;;10393901;28;20221;-76
2022/08/06 09:44:40;;;;;;;2.10;0.93;;;;;;;;;;10413782;28;20254;-75
2022/08/06 09:49:44;;;;;;;3.20;0.90;;;;;;;;;;10409278;28;20684;-75
2022/08/06 09:54:48;;;;;;;0.87;0.47;;;;;;;;;;10408736;28;20602;-74
2022/08/06 09:59:49;;;;;;;1.77;0.90;;;;;;;;;;10406026;28;20284;-73
2022/08/06 10:04:50;;;;;;;2.23;0.90;;;;;;;;;;10400137;28;20229;-73
2022/08/06 10:10:00;;;;;;;1.23;0.67;;;;;;;;;;10406035;28;20216;-75
2022/08/06 10:15:01;;;;;;;2.10;0.87;;;;;;;;;;10400757;28;20231;-71
2022/08/06 10:20:07;;;;;;;5.70;1.10;;;;;;;;;;10392493;28;20216;-75
2022/08/06 10:25:08;;;;;;;3.33;1.00;;;;;;;;;;10398017;28;20212;-74
2022/08/06 10:30:10;;;;;;;2.00;0.77;;;;;;;;;;10396651;28;20193;-72
2022/08/06 10:35:12;;;;;;;1.17;0.50;;;;;;;;;;10404734;28;20249;-73
2022/08/06 10:40:17;;;;;;;1.20;0.60;;;;;;;;;;10396005;28;20276;-73
2022/08/06 10:45:18;;;;;;;1.70;1.00;;;;;;;;;;10396938;28;20235;-71
2022/08/06 10:50:19;;;;;;;1.10;0.80;;;;;;;;;;10405509;28;20227;-71
2022/08/06 10:55:21;;;;;;;2.27;0.90;;;;;;;;;;10405964;28;20727;-70
2022/08/06 11:00:22;;;;;;;1.27;0.70;;;;;;;;;;10394825;28;20213;-71
2022/08/06 11:05:27;;;;;;;1.43;0.80;;;;;;;;;;10400118;28;20192;-72
2022/08/06 11:10:37;;;;;;;3.67;0.70;;;;;;;;;;10393915;28;20239;-72
2022/08/06 11:15:40;;;;;;;2.40;1.13;;;;;;;;;;10392326;28;20259;-73
2022/08/06 11:20:43;;;;;;;2.77;0.60;;;;;;;;;;10398890;28;20228;-71
2022/08/06 11:25:45;;;;;;;2.53;0.60;;;;;;;;;;10395627;28;20224;-72
2022/08/06 11:30:48;;;;;;;2.17;0.87;;;;;;;;;;10392425;28;20877;-72
2022/08/06 11:35:50;;;;;;;2.67;0.70;;;;;;;;;;10384801;28;20225;-71
2022/08/06 11:41:01;;;;;;;1.80;0.60;;;;;;;;;;10402281;28;20353;-72
2022/08/06 11:46:21;;;;;;;2.57;0.90;;;;;;;;;;10400857;28;20232;-71
2022/08/06 11:51:41;;;;;;;1.50;0.60;;;;;;;;;;10408294;28;20674;-71
2022/08/06 11:57:01;;;;;;;3.17;0.67;;;;;;;;;;10401218;28;20230;-70
2022/08/06 12:02:05;;;;;;;2.83;0.73;;;;;;;;;;10398804;28;20252;-68
2022/08/06 12:07:26;;;;;;;1.53;0.67;;;;;;;;;;10400983;28;20217;-69
2022/08/06 12:12:27;;;;;;;1.77;0.70;;;;;;;;;;10385283;28;20229;-69
2022/08/06 12:17:29;;;;;;;2.50;0.80;;;;;;;;;;10400478;28;20279;-72
2022/08/06 12:22:31;;;;;;;2.93;0.83;;;;;;;;;;10397313;28;20243;-72
2022/08/06 12:27:33;;;;;;;1.40;0.83;;;;;;;;;;10392501;28;20226;-72
2022/08/06 12:32:36;;;;;;;2.33;0.77;;;;;;;;;;10379041;28;20642;-71
2022/08/06 12:37:57;;;;;;;1.30;0.70;;;;;;;;;;10393882;28;20319;-70
2022/08/06 12:43:01;;;;;;;3.30;0.70;;;;;;;;;;10390330;28;20284;-72
2022/08/06 12:48:06;;;;;;;1.70;0.80;;;;;;;;;;10391019;28;20311;-72
2022/08/06 12:53:09;;;;;;;1.70;0.40;;;;;;;;;;10400324;28;20712;-71
2022/08/06 12:58:11;;;;;;;3.03;0.77;;;;;;;;;;10393096;28;20213;-72
2022/08/06 13:03:13;;;;;;;1.03;0.60;;;;;;;;;;10386286;28;20730;-71
2022/08/06 13:08:14;;;;;;;2.67;0.80;;;;;;;;;;10384992;28;20224;-72
2022/08/06 13:13:16;;;;;;;1.43;0.60;;;;;;;;;;10389925;28;20227;-73
2022/08/06 13:18:17;;;;;;;0.60;0.50;;;;;;;;;;10395197;28;20235;-72
2022/08/06 13:23:28;;;;;;;2.90;0.70;;;;;;;;;;10371934;28;20218;-70
2022/08/06 13:28:29;;;;;;;2.50;0.63;;;;;;;;;;10384959;28;20358;-71
2022/08/06 13:33:30;;;;;;;2.97;0.70;;;;;;;;;;10388872;28;20230;-71
2022/08/06 13:38:33;;;;;;;3.80;0.70;;;;;;;;;;10400561;28;20223;-72
2022/08/06 13:43:38;;;;;;;1.23;0.70;;;;;;;;;;10401029;28;20610;-72
2022/08/06 13:48:50;;;;;;;1.87;1.00;;;;;;;;;;10394314;28;20233;-74
2022/08/06 13:53:51;;;;;;;0.97;0.50;;;;;;;;;;10390510;28;20577;-74
2022/08/06 13:58:52;;;;;;;2.40;0.73;;;;;;;;;;10411684;28;20215;-71
2022/08/06 14:03:53;;;;;;;3.77;0.70;;;;;;;;;;10407676;28;20223;-70
2022/08/06 14:08:54;;;;;;;2.50;1.00;;;;;;;;;;10405468;28;20254;-71
2022/08/06 14:13:58;;;;;;;1.50;0.70;;;;;;;;;;10406517;28;20286;-71
2022/08/06 14:19:00;;;;;;;1.13;0.67;;;;;;;;;;10390167;28;20260;-71
2022/08/06 14:24:01;;;;;;;1.10;0.50;;;;;;;;;;10397601;28;20225;-70
2022/08/06 14:29:03;;;;;;;1.27;0.60;;;;;;;;;;10388120;28;20264;-70
2022/08/06 14:34:04;;;;;;;1.50;0.60;;;;;;;;;;10400505;28;20327;-70
2022/08/06 14:39:06;;;;;;;2.53;0.50;;;;;;;;;;10394233;28;20216;-71
2022/08/06 14:49:27;;;;;;;1.60;0.63;;;;;;;;;;10391420;28;20227;-71
2022/08/06 14:54:29;;;;;;;3.90;0.70;;;;;;;;;;10386051;28;20271;-71
2022/08/06 14:59:30;;;;;;;3.07;0.50;;;;;;;;;;10399100;28;20212;-71
2022/08/06 15:04:31;;;;;;;0.73;0.60;;;;;;;;;;10385254;28;20231;-72
2022/08/06 15:09:32;;;;;;;2.27;0.53;;;;;;;;;;10397074;28;20238;-70
2022/08/06 15:14:34;;;;;;;4.97;0.80;;;;;;;;;;10388288;28;20231;-70
2022/08/06 15:19:35;;;;;;;0.87;0.50;;;;;;;;;;10391142;28;21081;-70
2022/08/06 15:24:38;;;;;;;3.07;0.60;;;;;;;;;;10409117;28;20631;-70
2022/08/06 15:29:39;;;;;;;2.00;0.50;;;;;;;;;;10390454;28;20221;-71
2022/08/06 15:34:43;;;;;;;0.90;0.70;;;;;;;;;;10399077;28;20233;-70
2022/08/06 15:39:44;;;;;;;1.90;0.50;;;;;;;;;;10391024;28;20299;-71
2022/08/06 15:44:45;;;;;;;3.80;0.80;;;;;;;;;;10404614;28;20598;-70
2022/08/06 15:49:46;;;;;;;0.60;0.40;;;;;;;;;;10402120;28;20708;-70
2022/08/06 15:54:47;;;;;;;1.27;0.53;;;;;;;;;;10388058;28;20289;-69
2022/08/06 15:59:50;;;;;;;2.27;0.67;;;;;;;;;;10392332;28;20221;-70
2022/08/06 16:04:51;;;;;;;0.77;0.30;;;;;;;;;;10379843;28;20304;-71
2022/08/06 16:09:55;;;;;;;2.60;0.80;;;;;;;;;;10386272;28;20245;-71
2022/08/06 16:14:56;;;;;;;1.70;0.67;;;;;;;;;;10389132;28;20225;-70
2022/08/06 16:19:57;;;;;;;2.67;0.87;;;;;;;;;;10406303;28;20212;-71
2022/08/06 16:24:58;;;;;;;0.80;0.50;;;;;;;;;;10385284;28;20217;-71
2022/08/06 16:30:00;;;;;;;0.77;0.50;;;;;;;;;;10395460;28;20228;-71
2022/08/06 16:35:02;;;;;;;1.30;0.60;;;;;;;;;;10399255;28;20232;-69
2022/08/06 16:40:03;;;;;;;2.10;0.73;;;;;;;;;;10406618;28;20282;-69
2022/08/06 16:45:05;;;;;;;1.13;0.60;;;;;;;;;;10373043;28;20236;-70
2022/08/06 16:50:06;;;;;;;0.97;0.60;;;;;;;;;;10391877;28;20236;-69
2022/08/06 16:55:08;;;;;;;1.63;0.40;;;;;;;;;;10396569;28;20216;-70
2022/08/06 17:00:17;;;;;;;1.30;0.50;;;;;;;;;;10397293;28;20191;-71
2022/08/06 17:05:18;;;;;;;1.83;0.57;;;;;;;;;;10385100;28;20185;-71
2022/08/06 17:10:24;;;;;;;1.30;0.73;;;;;;;;;;10395078;28;20564;-71
2022/08/06 17:15:26;;;;;;;2.57;0.60;;;;;;;;;;10389717;28;20303;-70
2022/08/06 17:20:27;;;;;;;1.93;0.70;;;;;;;;;;10396183;28;20235;-70
2022/08/06 17:25:28;;;;;;;2.03;0.83;;;;;;;;;;10399923;28;20248;-69
2022/08/06 17:30:29;;;;;;;2.40;0.70;;;;;;;;;;10403037;28;20236;-70
2022/08/06 17:35:31;;;;;;;2.23;0.60;;;;;;;;;;10392946;28;20226;-70
2022/08/06 17:40:32;;;;;;;1.33;0.50;;;;;;;;;;10403411;28;20303;-71
2022/08/06 17:45:33;;;;;;;0.80;0.50;;;;;;;;;;10404589;28;20343;-71
2022/08/06 17:50:35;;;;;;;2.97;0.50;;;;;;;;;;10407865;28;20222;-71
2022/08/06 17:55:36;;;;;;;1.57;0.70;;;;;;;;;;10411085;28;20241;-70
2022/08/06 18:00:37;;;;;;;3.50;0.60;;;;;;;;;;10402124;28;20220;-71
2022/08/06 18:05:38;;;;;;;3.00;0.63;;;;;;;;;;10403901;28;20228;-71
2022/08/06 18:10:39;;;;;;;1.30;1.10;;;;;;;;;;10395605;28;20279;-71
2022/08/06 18:15:41;;;;;;;1.17;0.80;;;;;;;;;;10410112;28;20233;-72
2022/08/06 18:20:42;;;;;;;2.30;0.70;;;;;;;;;;10398361;28;20316;-71
2022/08/06 18:25:43;;;;;;;1.73;0.90;;;;;;;;;;10404237;28;20304;-71
2022/08/06 18:30:44;;;;;;;2.53;0.77;;;;;;;;;;10398186;28;20311;-72
2022/08/06 18:35:46;;;;;;;3.20;0.63;;;;;;;;;;10396650;28;20255;-71
2022/08/06 18:40:47;;;;;;;1.83;0.63;;;;;;;;;;10403380;28;20583;-70
2022/08/06 18:45:56;;;;;;;2.03;0.60;;;;;;;;;;10406097;28;20228;-72
2022/08/06 18:50:57;;;;;;;1.07;0.60;;;;;;;;;;10389417;28;20213;-71
2022/08/06 18:55:58;;;;;;;1.20;0.43;;;;;;;;;;10392125;28;20774;-70
2022/08/06 19:01:00;;;;;;;2.00;0.83;;;;;;;;;;10400602;28;20216;-70
2022/08/06 19:06:01;;;;;;;1.20;0.50;;;;;;;;;;10390731;28;20580;-70
2022/08/06 19:11:02;;;;;;;1.67;0.70;;;;;;;;;;10395978;28;20217;-70
2022/08/06 19:16:03;;;;;;;1.73;0.57;;;;;;;;;;10396754;28;20240;-70
2022/08/06 19:21:07;;;;;;;1.17;0.70;;;;;;;;;;10394856;28;20219;-71
2022/08/06 19:26:08;;;;;;;1.63;0.50;;;;;;;;;;10402371;28;20252;-70
2022/08/06 19:31:09;;;;;;;2.47;0.40;;;;;;;;;;10394799;28;20241;-72
2022/08/06 19:36:10;;;;;;;1.73;0.70;;;;;;;;;;10386509;28;20349;-71
2022/08/06 19:41:12;;;;;;;1.10;0.70;;;;;;;;;;10399526;28;20233;-70
2022/08/06 19:46:13;;;;;;;1.67;0.90;;;;;;;;;;10402775;28;20727;-70
2022/08/06 19:51:18;;;;;;;1.13;0.60;;;;;;;;;;10393818;28;20225;-71
2022/08/06 19:56:19;;;;;;;1.07;0.70;;;;;;;;;;10387703;28;20249;-69
2022/08/06 20:01:20;;;;;;;0.87;0.50;;;;;;;;;;10402829;28;20212;-70
2022/08/06 20:06:21;;;;;;;1.40;0.80;;;;;;;;;;10398424;28;20224;-69
2022/08/06 20:11:22;;;;;;;1.00;0.60;;;;;;;;;;10400538;28;20282;-69
2022/08/06 20:16:23;;;;;;;3.47;0.90;;;;;;;;;;10393417;28;20251;-70
2022/08/06 20:21:24;;;;;;;5.23;0.77;;;;;;;;;;10393626;28;20246;-67
2022/08/06 20:26:25;;;;;;;1.70;0.80;;;;;;;;;;10391001;28;20225;-67
2022/08/06 20:31:26;;;;;;;1.57;0.70;;;;;;;;;;10392775;28;20220;-68
2022/08/06 20:36:29;;;;;;;6.23;0.93;;;;;;;;;;10397627;28;20310;-67
2022/08/06 20:41:30;;;;;;;2.40;0.80;;;;;;;;;;10391514;28;20232;-68
2022/08/06 20:46:32;;;;;;;2.10;0.67;;;;;;;;;;10390023;28;20223;-66
2022/08/06 20:51:33;;;;;;;1.23;0.73;;;;;;;;;;10391226;28;20278;-67
2022/08/06 20:56:40;;;;;;;0.90;0.70;;;;;;;;;;10394079;28;20273;-73
2022/08/06 21:01:41;;;;;;;0.90;0.53;;;;;;;;;;10404511;28;20296;-71
2022/08/06 21:06:42;;;;;;;1.30;0.53;;;;;;;;;;10395013;28;20310;-71
2022/08/06 21:11:43;;;;;;;2.43;0.63;;;;;;;;;;10398597;28;20228;-69
2022/08/06 21:16:44;;;;;;;1.73;0.80;;;;;;;;;;10400789;28;20240;-72
2022/08/06 21:21:45;;;;;;;2.77;0.50;;;;;;;;;;10397807;28;20220;-72
2022/08/06 21:26:46;;;;;;;1.93;0.73;;;;;;;;;;10401276;28;20289;-72
2022/08/06 21:31:47;;;;;;;2.27;0.80;;;;;;;;;;10399661;28;20577;-70
2022/08/06 21:36:51;;;;;;;1.20;0.70;;;;;;;;;;10413600;28;20279;-70
2022/08/06 21:41:52;;;;;;;1.93;0.73;;;;;;;;;;10398019;28;20640;-71
2022/08/06 21:46:53;;;;;;;1.30;0.70;;;;;;;;;;10400462;28;20228;-71
2022/08/06 21:51:54;;;;;;;2.70;0.77;;;;;;;;;;10399544;28;20236;-69
2022/08/06 21:56:55;;;;;;;0.83;0.37;;;;;;;;;;10406201;28;20223;-72
2022/08/06 22:01:56;;;;;;;4.53;0.70;;;;;;;;;;10409091;28;20277;-69
2022/08/06 22:06:57;;;;;;;2.20;0.87;;;;;;;;;;10392922;28;20311;-71
2022/08/06 22:11:59;;;;;;;0.90;0.40;;;;;;;;;;10396557;28;20610;-73
2022/08/06 22:17:00;;;;;;;4.03;0.63;;;;;;;;;;10397028;28;20324;-70
2022/08/06 22:22:03;;;;;;;1.40;0.50;;;;;;;;;;10396801;28;20227;-72
2022/08/06 22:27:05;;;;;;;0.80;0.53;;;;;;;;;;10391750;28;20232;-72
2022/08/06 22:32:06;;;;;;;2.40;0.43;;;;;;;;;;10380067;28;20280;-72
2022/08/06 22:37:09;;;;;;;2.07;0.50;;;;;;;;;;10406089;28;20240;-73
2022/08/06 22:42:10;;;;;;;1.33;0.70;;;;;;;;;;10411430;28;20575;-71
2022/08/06 22:47:11;;;;;;;3.93;0.70;;;;;;;;;;10397527;28;20290;-72
2022/08/06 22:52:12;;;;;;;0.83;0.67;;;;;;;;;;10390709;28;20390;-71
2022/08/06 22:57:13;;;;;;;1.40;0.50;;;;;;;;;;10384993;28;20233;-72
2022/08/06 23:02:14;;;;;;;1.70;0.80;;;;;;;;;;10402456;28;20232;-72
2022/08/06 23:07:19;;;;;;;0.90;0.50;;;;;;;;;;10396550;28;20599;-72
2022/08/06 23:12:21;;;;;;;1.00;0.70;;;;;;;;;;10396298;28;20228;-71
2022/08/06 23:17:22;;;;;;;1.00;0.80;;;;;;;;;;10395896;28;20223;-71
2022/08/06 23:22:23;;;;;;;4.83;0.80;;;;;;;;;;10402788;28;20223;-72
2022/08/06 23:27:27;;;;;;;1.60;0.70;;;;;;;;;;10401060;28;20275;-72
2022/08/06 23:32:28;;;;;;;0.70;0.50;;;;;;;;;;10404999;28;20231;-72
2022/08/06 23:37:29;;;;;;;3.43;0.70;;;;;;;;;;10380787;28;20235;-72
2022/08/06 23:42:31;;;;;;;2.07;0.87;;;;;;;;;;10393803;28;20238;-71
2022/08/06 23:47:35;;;;;;;3.30;1.00;;;;;;;;;;10390254;28;20770;-72
2022/08/06 23:52:36;;;;;;;1.60;0.70;;;;;;;;;;10395892;28;20613;-71
2022/08/06 23:57:37;;;;;;;0.90;0.70;;;;;;;;;;10395263;28;20248;-71
